Time;durP1;ratioP1;P1;durP2;ratioP2;P2;SDS_P1;SDS_P2;PMS_P1;PMS_P2;Temp;Humidity;BMP_temperature;BMP_pressure;BME280_temperature;BME280_humidity;BME280_pressure;Samples;Min_cycle;Max_cycle;Signal;HPM_P1;HPM_P2
2021/04/02 12:22:27;;;;;;;10.15;4.85;;;;;;;18.34;52.44;95276.97;4925252;28;1120987;-69
2021/04/02 12:24:54;;;;;;;6.43;4.88;;;;;;;18.79;50.79;95286.84;4995846;28;20250;-63
2021/04/02 12:27:22;;;;;;;7.35;4.78;;;;;;;18.90;51.14;95277.25;5005864;28;20615;-63
2021/04/02 12:29:49;;;;;;;6.25;4.40;;;;;;;19.19;48.58;95264.53;5007080;28;20195;-64
2021/04/02 12:32:16;;;;;;;6.60;4.75;;;;;;;18.89;49.38;95269.72;5007369;28;20198;-64
2021/04/02 12:34:43;;;;;;;8.65;5.10;;;;;;;18.72;49.62;95268.31;5007150;28;20693;-64
2021/04/02 12:37:10;;;;;;;18.10;8.68;;;;;;;18.61;51.83;95270.00;5007384;28;20206;-64
2021/04/02 12:39:38;;;;;;;11.10;5.60;;;;;;;19.19;49.82;95259.28;5007310;28;20626;-64
2021/04/02 12:42:06;;;;;;;10.98;6.03;;;;;;;19.47;49.67;95262.38;5007016;28;20292;-63
2021/04/02 12:44:33;;;;;;;10.10;5.38;;;;;;;19.87;49.54;95245.19;5007062;28;20233;-63
2021/04/02 12:47:01;;;;;;;13.23;6.55;;;;;;;19.42;48.16;95251.34;5000427;28;20215;-64
2021/04/02 12:49:31;;;;;;;8.57;5.28;;;;;;;19.49;47.73;95241.69;4987741;28;20195;-64
2021/04/02 12:51:58;;;;;;;24.65;11.00;;;;;;;19.22;47.13;95232.25;4987709;28;20199;-64
2021/04/02 12:54:25;;;;;;;8.35;5.13;;;;;;;19.20;46.68;95229.19;4987522;28;20210;-63
2021/04/02 12:56:53;;;;;;;9.02;5.70;;;;;;;19.10;47.12;95225.28;4987445;28;20195;-63
2021/04/02 12:59:20;;;;;;;7.43;4.50;;;;;;;19.10;48.44;95229.78;4987409;28;20218;-64
2021/04/02 13:01:47;;;;;;;5.75;4.25;;;;;;;18.80;48.42;95232.31;4987284;28;20306;-63
2021/04/02 13:04:14;;;;;;;5.22;4.00;;;;;;;18.93;46.69;95218.63;4987404;28;20202;-61
2021/04/02 13:06:41;;;;;;;7.95;4.57;;;;;;;19.14;48.00;95226.09;4987519;28;20658;-63
2021/04/02 13:09:08;;;;;;;6.18;4.75;;;;;;;19.05;46.66;95219.56;4987124;28;20722;-64
2021/04/02 13:11:35;;;;;;;16.70;8.45;;;;;;;18.80;47.10;95222.56;4987561;28;20212;-63
2021/04/02 13:14:06;;;;;;;10.43;5.88;;;;;;;18.56;47.75;95206.34;4987126;28;20199;-64
2021/04/02 13:16:33;;;;;;;10.38;5.68;;;;;;;18.96;48.33;95214.53;4987350;28;20217;-63
2021/04/02 13:19:00;;;;;;;22.75;10.73;;;;;;;19.03;47.33;95208.63;4987089;28;20203;-64
2021/04/02 13:21:28;;;;;;;8.32;5.38;;;;;;;19.23;47.27;95204.75;4986610;28;20250;-65
2021/04/02 13:23:58;;;;;;;22.48;10.18;;;;;;;19.23;46.66;95207.38;4986847;28;20254;-64
2021/04/02 13:26:27;;;;;;;19.40;9.25;;;;;;;18.86;46.61;95208.00;4986902;28;20716;-64
2021/04/02 13:28:54;;;;;;;7.63;4.00;;;;;;;18.75;46.98;95214.19;4986803;28;20199;-63
2021/04/02 13:31:24;;;;;;;21.85;6.35;;;;;;;18.69;47.79;95211.09;4987088;28;20261;-64
2021/04/02 13:33:54;;;;;;;17.35;8.65;;;;;;;18.50;47.60;95203.22;4973619;28;20210;-63
2021/04/02 13:36:21;;;;;;;16.27;7.22;;;;;;;18.38;48.34;95200.78;4973807;28;20310;-64
2021/04/02 13:38:50;;;;;;;13.65;7.28;;;;;;;18.20;48.96;95197.03;4973951;28;20266;-65
2021/04/02 13:41:17;;;;;;;13.48;7.50;;;;;;;18.24;48.87;95205.75;4973689;28;20227;-64
2021/04/02 13:43:44;;;;;;;5.57;4.18;;;;;;;18.24;49.53;95206.50;4973709;28;20235;-66
2021/04/02 13:46:11;;;;;;;15.18;7.55;;;;;;;18.12;50.45;95203.28;4973560;28;20670;-64
2021/04/02 13:48:40;;;;;;;6.57;4.03;;;;;;;18.29;50.24;95197.56;4974076;28;20567;-65
2021/04/02 13:51:07;;;;;;;8.80;5.55;;;;;;;18.08;50.23;95205.09;4973948;28;20203;-64
2021/04/02 13:53:34;;;;;;;10.93;5.73;;;;;;;18.08;50.78;95206.59;4973498;28;20196;-64
2021/04/02 13:56:02;;;;;;;11.95;5.65;;;;;;;18.13;50.38;95202.19;4973597;28;20247;-64
2021/04/02 13:58:29;;;;;;;20.73;8.90;;;;;;;17.92;50.76;95200.69;4973387;28;20199;-63
2021/04/02 14:00:56;;;;;;;5.27;3.97;;;;;;;18.08;50.60;95194.59;4973387;28;20281;-65
2021/04/02 14:03:23;;;;;;;10.98;6.03;;;;;;;17.97;50.59;95195.13;4973327;28;20202;-63
2021/04/02 14:05:51;;;;;;;18.37;6.77;;;;;;;18.03;50.85;95188.47;4973333;28;20259;-64
2021/04/02 14:08:18;;;;;;;9.73;5.95;;;;;;;17.97;51.48;95187.25;4973420;28;20196;-65
2021/04/02 14:10:45;;;;;;;8.00;4.90;;;;;;;17.87;51.52;95193.06;4973327;28;20192;-66
2021/04/02 14:13:12;;;;;;;12.70;6.50;;;;;;;17.58;51.43;95185.69;4973028;28;20202;-64
2021/04/02 14:15:40;;;;;;;11.27;5.63;;;;;;;17.70;51.38;95177.69;4973336;28;20208;-64
2021/04/02 14:18:10;;;;;;;11.60;6.03;;;;;;;17.65;51.68;95183.22;4973058;28;20196;-64
2021/04/02 14:20:40;;;;;;;12.63;6.67;;;;;;;17.64;50.82;95174.59;4972873;28;20282;-65
2021/04/02 14:23:08;;;;;;;4.97;3.63;;;;;;;17.70;51.15;95177.69;4973145;28;20204;-64
2021/04/02 14:25:35;;;;;;;5.90;4.07;;;;;;;17.95;50.78;95184.19;4972807;28;20202;-64
2021/04/02 14:28:05;;;;;;;9.87;5.07;;;;;;;17.83;50.83;95178.34;4973111;28;20196;-64
2021/04/02 14:30:35;;;;;;;9.80;5.25;;;;;;;18.10;50.30;95173.94;4972747;28;20709;-65
2021/04/02 14:33:02;;;;;;;20.57;13.13;;;;;;;18.36;50.25;95171.41;4972788;28;20745;-64
2021/04/02 14:35:29;;;;;;;54.70;24.08;;;;;;;18.54;50.07;95176.97;4972664;28;20204;-65
2021/04/02 14:37:57;;;;;;;11.02;6.43;;;;;;;18.46;49.37;95157.66;4972646;28;20204;-64
2021/04/02 14:40:29;;;;;;;6.13;4.90;;;;;;;18.65;50.24;95154.22;4972498;28;20670;-64
2021/04/02 14:42:56;;;;;;;6.25;5.00;;;;;;;19.03;48.90;95161.22;4972633;28;20200;-64
2021/04/02 14:45:23;;;;;;;9.20;5.53;;;;;;;18.93;49.05;95157.28;4971662;28;20572;-65
2021/04/02 14:47:52;;;;;;;11.90;6.45;;;;;;;19.02;49.08;95160.44;4972767;28;20234;-64
2021/04/02 14:50:20;;;;;;;6.53;4.65;;;;;;;18.67;48.47;95152.78;4972509;28;20255;-64
2021/04/02 14:52:47;;;;;;;8.65;4.68;;;;;;;18.72;49.88;95152.47;4972313;28;20251;-64
2021/04/02 14:55:14;;;;;;;9.10;5.53;;;;;;;18.51;49.76;95160.00;4972355;28;20239;-64
2021/04/02 14:57:43;;;;;;;6.00;4.28;;;;;;;18.63;49.62;95156.47;4972322;28;20251;-65
2021/04/02 15:00:12;;;;;;;10.70;5.53;;;;;;;18.44;49.54;95147.47;4972235;28;20287;-62
2021/04/02 15:02:39;;;;;;;8.35;4.68;;;;;;;18.31;51.13;95156.66;4972131;28;20240;-64
2021/04/02 15:05:08;;;;;;;9.27;4.63;;;;;;;18.37;49.85;95151.88;4972026;28;20282;-64
2021/04/02 15:07:35;;;;;;;11.25;4.05;;;;;;;18.33;49.75;95153.69;4972483;28;20227;-64
2021/04/02 15:10:03;;;;;;;8.20;4.53;;;;;;;17.98;50.81;95151.94;4972420;28;20200;-64
2021/04/02 15:12:30;;;;;;;12.87;5.63;;;;;;;17.75;51.71;95155.63;4972289;28;20602;-63
2021/04/02 15:14:58;;;;;;;7.68;4.25;;;;;;;17.76;52.50;95155.28;4972008;28;20203;-63
2021/04/02 15:17:26;;;;;;;10.63;5.23;;;;;;;17.73;52.92;95149.97;4972168;28;20203;-64
2021/04/02 15:19:53;;;;;;;7.37;4.70;;;;;;;17.59;53.61;95147.81;4971787;28;20204;-63
2021/04/02 15:22:20;;;;;;;6.67;4.57;;;;;;;17.66;52.94;95145.34;4971577;28;20235;-64
2021/04/02 15:24:48;;;;;;;8.00;4.03;;;;;;;17.53;52.81;95149.19;4971832;28;20196;-64
2021/04/02 15:27:15;;;;;;;16.67;9.23;;;;;;;17.46;52.07;95151.66;4971670;28;20679;-65
2021/04/02 15:29:42;;;;;;;7.00;4.93;;;;;;;17.40;52.94;95147.78;4971775;28;20551;-65
2021/04/02 15:32:10;;;;;;;12.15;5.00;;;;;;;17.15;52.96;95150.66;4971711;28;20270;-66
2021/04/02 15:34:37;;;;;;;15.83;8.07;;;;;;;17.18;52.30;95149.22;4971892;28;20279;-64
2021/04/02 15:37:07;;;;;;;8.13;4.40;;;;;;;17.06;53.36;95149.31;4971632;28;20262;-65
2021/04/02 15:39:34;;;;;;;7.07;4.40;;;;;;;17.11;53.46;95149.81;4971586;28;20200;-65
2021/04/02 15:42:01;;;;;;;11.40;6.50;;;;;;;16.95;53.86;95149.09;4971465;28;20246;-64
2021/04/02 15:44:28;;;;;;;7.53;5.33;;;;;;;16.85;54.04;95157.47;4971456;28;20192;-65
2021/04/02 15:46:55;;;;;;;13.53;7.30;;;;;;;16.85;54.42;95154.84;4971469;28;20216;-66
2021/04/02 15:49:22;;;;;;;10.70;5.43;;;;;;;16.82;55.45;95149.53;4971672;28;20663;-65
2021/04/02 15:51:50;;;;;;;8.47;5.53;;;;;;;16.64;55.67;95157.75;4971458;28;20796;-65
2021/04/02 15:54:16;;;;;;;9.07;6.00;;;;;;;16.61;55.96;95162.91;4971385;28;20204;-66
2021/04/02 15:56:44;;;;;;;10.47;6.23;;;;;;;16.70;56.03;95159.03;4971132;28;20204;-65
2021/04/02 15:59:11;;;;;;;12.40;7.40;;;;;;;16.54;57.08;95160.09;4971310;28;20210;-66
2021/04/02 16:01:38;;;;;;;17.33;8.97;;;;;;;16.41;57.62;95169.16;4971205;28;20227;-65
2021/04/02 16:04:05;;;;;;;14.73;7.23;;;;;;;16.32;58.36;95172.69;4971132;28;20666;-63
2021/04/02 16:06:35;;;;;;;10.60;6.20;;;;;;;16.31;58.46;95168.56;4971213;28;20192;-63
2021/04/02 16:09:02;;;;;;;12.77;7.40;;;;;;;16.24;58.99;95170.22;4971063;28;20203;-63
2021/04/02 16:11:29;;;;;;;10.23;6.67;;;;;;;16.22;59.48;95165.34;4971268;28;20254;-64
2021/04/02 16:13:56;;;;;;;12.10;7.90;;;;;;;16.14;60.31;95168.84;4971094;28;20196;-64
2021/04/02 16:16:23;;;;;;;10.90;6.83;;;;;;;16.12;59.98;95171.06;4971413;28;20571;-63
2021/04/02 16:18:50;;;;;;;17.97;8.27;;;;;;;15.97;60.91;95171.78;4971207;28;20200;-63
2021/04/02 16:21:17;;;;;;;14.63;8.23;;;;;;;15.84;61.42;95176.31;4970741;28;20250;-63
2021/04/02 16:23:45;;;;;;;14.50;6.97;;;;;;;15.81;61.67;95178.84;4971071;28;20219;-63
2021/04/02 16:26:12;;;;;;;12.47;7.40;;;;;;;15.68;62.31;95172.91;4971130;28;20219;-63
2021/04/02 16:28:39;;;;;;;12.07;6.97;;;;;;;15.55;63.03;95170.63;4970940;28;20192;-63
2021/04/02 16:31:06;;;;;;;10.53;6.63;;;;;;;15.42;63.36;95175.13;4970900;28;20663;-62
2021/04/02 16:33:34;;;;;;;10.57;6.43;;;;;;;15.41;63.21;95184.81;4970939;28;20682;-63
2021/04/02 16:36:01;;;;;;;14.93;7.60;;;;;;;15.35;63.39;95183.53;4971217;28;20251;-63
2021/04/02 16:38:29;;;;;;;15.73;7.27;;;;;;;15.39;63.30;95181.75;4970949;28;20302;-62
2021/04/02 16:40:57;;;;;;;12.33;6.70;;;;;;;15.33;63.28;95188.34;4970745;28;20235;-63
2021/04/02 16:43:24;;;;;;;17.40;8.63;;;;;;;15.22;64.06;95187.25;4970844;28;20655;-63
2021/04/02 16:45:51;;;;;;;14.70;8.53;;;;;;;15.25;63.80;95186.59;4970930;28;20203;-63
2021/04/02 16:48:18;;;;;;;23.10;11.03;;;;;;;15.09;64.67;95186.50;4970987;28;20288;-65
2021/04/02 16:50:45;;;;;;;26.73;15.10;;;;;;;14.98;65.48;95192.53;4970800;28;20196;-63
2021/04/02 16:53:13;;;;;;;31.03;16.17;;;;;;;14.91;66.00;95189.69;4970671;28;20550;-63
2021/04/02 16:55:40;;;;;;;21.47;12.00;;;;;;;14.95;65.44;95198.41;4970730;28;20648;-63
2021/04/02 16:58:07;;;;;;;18.53;10.93;;;;;;;14.84;65.79;95185.00;4970925;28;20537;-63
2021/04/02 17:00:35;;;;;;;18.17;10.43;;;;;;;14.86;66.01;95182.81;4970585;28;20620;-62
2021/04/02 17:03:02;;;;;;;14.83;9.13;;;;;;;14.73;66.36;95185.75;4970819;28;20196;-63
2021/04/02 17:05:29;;;;;;;15.87;9.40;;;;;;;14.81;65.95;95192.72;4970744;28;20231;-63
2021/04/02 17:07:55;;;;;;;16.03;10.03;;;;;;;14.69;66.22;95184.91;4972193;28;20690;-64
2021/04/02 17:10:22;;;;;;;18.23;11.03;;;;;;;14.52;66.73;95186.63;4974352;28;20674;-64
2021/04/02 17:12:51;;;;;;;20.20;11.53;;;;;;;14.65;65.83;95185.53;4974756;28;20278;-64
2021/04/02 17:15:19;;;;;;;12.53;8.90;;;;;;;14.52;66.60;95184.00;4974220;28;20204;-63
2021/04/02 17:17:46;;;;;;;13.10;9.27;;;;;;;14.61;66.37;95194.34;4974031;28;20230;-62
2021/04/02 17:20:15;;;;;;;18.03;11.57;;;;;;;14.53;66.40;95193.38;4974048;28;20192;-64
2021/04/02 17:22:43;;;;;;;20.37;13.13;;;;;;;14.45;66.97;95190.84;4973749;28;20613;-63
2021/04/02 17:25:11;;;;;;;25.90;13.40;;;;;;;14.29;67.74;95197.78;4974382;28;20196;-62
2021/04/02 17:27:38;;;;;;;20.10;12.30;;;;;;;14.25;67.85;95194.28;4973894;28;20199;-63
2021/04/02 17:30:10;;;;;;;19.10;11.47;;;;;;;14.11;68.54;95197.94;4973955;28;20203;-63
2021/04/02 17:32:39;;;;;;;15.33;9.77;;;;;;;14.25;68.63;95208.09;4974191;28;20337;-62
2021/04/02 17:35:08;;;;;;;16.33;10.40;;;;;;;14.11;68.54;95210.22;4973846;28;20729;-63
2021/04/02 17:37:35;;;;;;;18.77;10.03;;;;;;;14.16;68.92;95215.25;4973800;28;20239;-63
2021/04/02 17:40:02;;;;;;;18.83;10.53;;;;;;;14.07;69.88;95215.34;4973618;28;20196;-63
2021/04/02 17:42:30;;;;;;;18.20;11.27;;;;;;;14.02;69.94;95225.22;4973632;28;20234;-63
2021/04/02 17:44:57;;;;;;;22.10;11.57;;;;;;;14.13;69.42;95231.59;4973648;28;20341;-63
2021/04/02 17:47:24;;;;;;;22.57;12.27;;;;;;;14.16;69.21;95223.84;4973752;28;20721;-62
2021/04/02 17:49:54;;;;;;;21.37;12.03;;;;;;;14.16;69.35;95230.94;4973404;28;20577;-63
2021/04/02 17:52:23;;;;;;;16.83;11.30;;;;;;;14.20;69.61;95235.19;4973746;28;20196;-63
2021/04/02 17:54:52;;;;;;;21.20;12.43;;;;;;;14.13;69.58;95244.66;4972472;28;20196;-65
2021/04/02 17:57:21;;;;;;;19.43;11.73;;;;;;;14.20;69.04;95242.25;4973656;28;20321;-62
2021/04/02 17:59:50;;;;;;;19.83;10.83;;;;;;;14.17;68.47;95246.31;4973373;28;20211;-62
2021/04/02 18:02:18;;;;;;;16.30;9.50;;;;;;;14.18;68.43;95253.06;4973358;28;20219;-65
2021/04/02 18:04:45;;;;;;;16.27;8.23;;;;;;;14.30;67.59;95252.31;4973420;28;20196;-63
2021/04/02 18:07:14;;;;;;;9.90;7.10;;;;;;;14.37;66.48;95257.06;4973345;28;20597;-64
2021/04/02 18:09:42;;;;;;;15.77;7.40;;;;;;;14.37;66.23;95255.22;4973545;28;20242;-63
2021/04/02 18:12:10;;;;;;;18.27;7.40;;;;;;;14.41;66.22;95258.69;4973145;28;20291;-63
2021/04/02 18:14:37;;;;;;;12.60;8.27;;;;;;;14.47;66.70;95260.03;4973183;28;20196;-63
2021/04/02 18:17:07;;;;;;;13.87;8.60;;;;;;;14.40;67.07;95262.41;4973159;28;20254;-63
2021/04/02 18:19:34;;;;;;;14.30;9.17;;;;;;;14.29;67.48;95266.50;4972937;28;20557;-63
2021/04/02 18:22:01;;;;;;;17.20;9.73;;;;;;;14.13;67.47;95271.56;4972914;28;20871;-63
2021/04/02 18:24:32;;;;;;;15.77;8.93;;;;;;;14.15;67.63;95282.44;4972977;28;20734;-63
2021/04/02 18:26:59;;;;;;;15.53;9.30;;;;;;;14.07;67.75;95282.50;4973783;28;20251;-63
2021/04/02 18:29:25;;;;;;;13.17;8.30;;;;;;;14.10;68.31;95282.63;4972926;28;20287;-64
2021/04/02 18:31:53;;;;;;;14.00;8.40;;;;;;;14.06;68.78;95286.19;4972851;28;20720;-64
2021/04/02 18:34:21;;;;;;;13.67;8.27;;;;;;;13.93;69.41;95284.63;4973125;28;20263;-63
2021/04/02 18:36:48;;;;;;;15.43;8.57;;;;;;;13.94;69.41;95286.94;4972956;28;20323;-63
2021/04/02 18:39:15;;;;;;;15.87;8.87;;;;;;;13.99;69.85;95291.19;4972760;28;20196;-63
2021/04/02 18:41:43;;;;;;;17.87;10.40;;;;;;;13.82;71.32;95299.13;4972563;28;20765;-62
2021/04/02 18:44:10;;;;;;;16.30;10.10;;;;;;;13.73;72.14;95302.59;4972703;28;20853;-63
2021/04/02 18:46:37;;;;;;;15.40;8.13;;;;;;;13.64;73.07;95316.78;4972576;28;20228;-63
2021/04/02 18:49:04;;;;;;;11.93;7.13;;;;;;;13.56;72.94;95326.16;4972880;28;20663;-63
2021/04/02 18:51:31;;;;;;;15.80;8.00;;;;;;;13.67;72.04;95322.13;4972452;28;20204;-62
2021/04/02 18:54:02;;;;;;;16.60;7.80;;;;;;;13.85;71.66;95320.16;4972235;28;20199;-63
2021/04/02 18:56:29;;;;;;;12.83;7.53;;;;;;;13.98;72.19;95318.41;4972150;28;20192;-63
2021/04/02 18:58:57;;;;;;;13.30;7.03;;;;;;;14.05;72.03;95319.41;4972525;28;20200;-64
2021/04/02 19:01:24;;;;;;;12.23;6.53;;;;;;;14.18;72.20;95328.09;4972505;28;20232;-64
2021/04/02 19:03:51;;;;;;;17.83;11.17;;;;;;;14.14;73.68;95304.44;4972222;28;20203;-63
2021/04/02 19:06:18;;;;;;;11.37;7.23;;;;;;;14.11;74.84;95304.28;4972256;28;20202;-63
2021/04/02 19:08:45;;;;;;;7.10;5.30;;;;;;;14.10;75.53;95306.16;4972079;28;20749;-62
2021/04/02 19:11:12;;;;;;;11.27;6.57;;;;;;;13.94;77.09;95312.28;4972012;28;20258;-64
2021/04/02 19:13:40;;;;;;;13.63;9.20;;;;;;;13.85;77.20;95314.94;4972321;28;20202;-62
2021/04/02 19:16:09;;;;;;;21.00;12.93;;;;;;;13.72;77.67;95316.72;4972032;28;20227;-63
2021/04/02 19:18:36;;;;;;;16.77;9.47;;;;;;;13.53;78.60;95321.59;4971916;28;20200;-63
2021/04/02 19:21:03;;;;;;;29.10;15.83;;;;;;;13.39;79.75;95322.91;4971746;28;20235;-62
2021/04/02 19:23:30;;;;;;;17.80;10.63;;;;;;;13.41;80.02;95325.94;4972010;28;20652;-63
2021/04/02 19:25:57;;;;;;;18.77;10.27;;;;;;;13.41;80.50;95333.78;4972448;28;20647;-64
2021/04/02 19:28:24;;;;;;;13.93;8.90;;;;;;;13.36;80.70;95335.47;4971838;28;20207;-62
2021/04/02 19:30:52;;;;;;;15.93;9.20;;;;;;;13.24;82.49;95337.25;4971463;28;20200;-64
2021/04/02 19:33:21;;;;;;;36.43;16.20;;;;;;;13.09;83.24;95348.94;4971842;28;20246;-64
2021/04/02 19:35:48;;;;;;;23.50;11.43;;;;;;;13.20;82.87;95347.50;4971691;28;20283;-64
2021/04/02 19:38:15;;;;;;;27.93;11.73;;;;;;;13.00;83.72;95352.66;4971586;28;20596;-64
2021/04/02 19:40:42;;;;;;;30.10;12.17;;;;;;;13.05;83.59;95360.31;4971537;28;20247;-64
2021/04/02 19:43:09;;;;;;;12.53;7.00;;;;;;;13.13;83.79;95359.53;4971647;28;20204;-65
2021/04/02 19:45:36;;;;;;;16.07;8.60;;;;;;;12.97;84.37;95359.22;4971565;28;20207;-65
2021/04/02 19:48:05;;;;;;;14.90;8.90;;;;;;;13.05;84.38;95360.31;4971416;28;20274;-62
2021/04/02 19:50:33;;;;;;;14.03;8.37;;;;;;;12.92;85.11;95362.78;4971466;28;20588;-64
2021/04/02 19:53:00;;;;;;;11.87;7.63;;;;;;;13.00;85.53;95363.06;4971418;28;20231;-63
2021/04/02 19:55:27;;;;;;;10.73;7.43;;;;;;;13.06;86.61;95362.56;4971325;28;20196;-64
2021/04/02 19:57:55;;;;;;;11.10;7.77;;;;;;;12.96;86.08;95370.75;4971474;28;20200;-64
2021/04/02 20:00:24;;;;;;;12.87;8.40;;;;;;;12.86;87.48;95371.84;4971373;28;20200;-62
2021/04/02 20:02:51;;;;;;;12.13;8.87;;;;;;;12.97;88.25;95368.91;4971123;28;20606;-64
2021/04/02 20:05:19;;;;;;;14.67;10.17;;;;;;;12.84;89.11;95370.63;4971247;28;20262;-63
2021/04/02 20:07:47;;;;;;;13.87;9.43;;;;;;;12.79;89.24;95373.41;4971190;28;20601;-64
2021/04/02 20:10:17;;;;;;;11.60;8.83;;;;;;;12.78;90.60;95375.22;4971381;28;20323;-63
2021/04/02 20:12:44;;;;;;;11.93;7.97;;;;;;;12.81;90.79;95372.00;4971176;28;20739;-63
2021/04/02 20:15:13;;;;;;;11.93;9.37;;;;;;;12.80;91.00;95375.69;4971063;28;20207;-63
2021/04/02 20:17:40;;;;;;;14.23;9.03;;;;;;;12.72;92.20;95383.50;4971157;28;20202;-65
2021/04/02 20:20:10;;;;;;;15.27;9.40;;;;;;;12.66;92.93;95375.09;4971395;28;20200;-64
2021/04/02 20:22:37;;;;;;;12.70;9.13;;;;;;;12.66;93.54;95375.09;4970675;28;20235;-63
2021/04/02 20:25:07;;;;;;;14.83;9.53;;;;;;;12.64;94.01;95379.09;4971115;28;20580;-65
2021/04/02 20:27:34;;;;;;;12.17;9.30;;;;;;;12.52;94.50;95374.50;4970856;28;20916;-62
2021/04/02 20:30:03;;;;;;;12.20;9.27;;;;;;;12.46;95.26;95380.91;4970956;28;20576;-65
2021/04/02 20:32:30;;;;;;;10.13;8.43;;;;;;;12.53;94.80;95376.03;4970926;28;20196;-64
2021/04/02 20:34:58;;;;;;;14.63;8.60;;;;;;;12.46;95.20;95386.13;4971377;28;20195;-63
2021/04/02 20:37:25;;;;;;;11.93;9.47;;;;;;;12.27;96.10;95380.47;4971118;28;20207;-64
2021/04/02 20:39:55;;;;;;;17.13;11.30;;;;;;;12.34;96.03;95389.38;4971070;28;20200;-64
2021/04/02 20:42:23;;;;;;;15.87;10.97;;;;;;;12.41;95.79;95388.91;4971458;28;20227;-65
2021/04/02 20:44:50;;;;;;;18.17;11.33;;;;;;;12.14;96.48;95402.22;4974833;28;20224;-65
2021/04/02 20:47:17;;;;;;;20.80;13.10;;;;;;;11.89;98.21;95414.91;4974891;28;20224;-65
2021/04/02 20:49:44;;;;;;;18.73;11.70;;;;;;;11.62;100.00;95410.66;4974902;28;20279;-65
2021/04/02 20:52:11;;;;;;;17.87;11.70;;;;;;;11.60;100.00;95410.19;4974630;28;20211;-66
2021/04/02 20:54:38;;;;;;;15.40;11.63;;;;;;;11.55;99.92;95417.38;4974687;28;20230;-63
2021/04/02 20:57:06;;;;;;;20.40;12.67;;;;;;;11.50;100.00;95420.09;4974677;28;20210;-64
2021/04/02 20:59:34;;;;;;;17.03;12.73;;;;;;;11.40;100.00;95428.16;4974535;28;20199;-67
2021/04/02 21:02:01;;;;;;;15.97;12.90;;;;;;;11.30;100.00;95431.78;4974737;28;20681;-65
2021/04/02 21:04:29;;;;;;;21.53;12.50;;;;;;;11.22;100.00;95435.88;4974474;28;20203;-64
2021/04/02 21:06:56;;;;;;;20.17;13.47;;;;;;;11.09;100.00;95434.13;4974621;28;20211;-64
2021/04/02 21:09:23;;;;;;;15.80;12.27;;;;;;;11.02;100.00;95433.00;4974450;28;20294;-61
2021/04/02 21:11:52;;;;;;;18.03;12.10;;;;;;;10.95;100.00;95443.06;4974265;28;20208;-65
2021/04/02 21:14:23;;;;;;;17.27;12.63;;;;;;;10.76;100.00;95445.81;4974298;28;20235;-64
2021/04/02 21:16:51;;;;;;;16.13;10.77;;;;;;;10.75;100.00;95446.91;4974623;28;20200;-65
2021/04/02 21:19:18;;;;;;;18.30;11.73;;;;;;;10.60;100.00;95448.00;4974339;28;20196;-65
2021/04/02 21:21:45;;;;;;;19.30;12.27;;;;;;;10.48;100.00;95454.78;4974003;28;20780;-64
2021/04/02 21:24:12;;;;;;;29.10;13.43;;;;;;;10.36;100.00;95448.25;4974254;28;20206;-63
2021/04/02 21:26:39;;;;;;;19.47;12.70;;;;;;;10.28;100.00;95450.78;4974112;28;20204;-62
2021/04/02 21:29:06;;;;;;;23.07;13.50;;;;;;;10.27;100.00;95429.22;4974372;28;20204;-63
2021/04/02 21:31:34;;;;;;;19.63;13.67;;;;;;;10.45;100.00;95419.00;4974130;28;20293;-64
2021/04/02 21:34:02;;;;;;;19.80;13.27;;;;;;;10.59;100.00;95412.69;4973984;28;20733;-63
2021/04/02 21:36:29;;;;;;;21.57;13.00;;;;;;;10.65;100.00;95408.16;4973780;28;20555;-65
2021/04/02 21:38:56;;;;;;;24.00;13.33;;;;;;;10.76;100.00;95404.22;4973775;28;20595;-63
2021/04/02 21:41:23;;;;;;;19.30;12.63;;;;;;;10.85;100.00;95367.91;4974079;28;20238;-64
2021/04/02 21:43:50;;;;;;;20.90;12.87;;;;;;;10.87;100.00;95363.16;4973929;28;20208;-64
2021/04/02 21:46:17;;;;;;;20.40;12.60;;;;;;;10.91;100.00;95370.06;4973932;28;20215;-63
2021/04/02 21:48:44;;;;;;;22.73;13.40;;;;;;;10.94;100.00;95369.50;4973978;28;20220;-65
2021/04/02 21:51:13;;;;;;;17.87;13.00;;;;;;;10.86;100.00;95362.41;4973496;28;20238;-63
2021/04/02 21:53:42;;;;;;;19.10;12.70;;;;;;;10.93;100.00;95357.56;4973085;28;20228;-64
2021/04/02 21:56:14;;;;;;;70.47;22.70;;;;;;;11.03;100.00;95357.31;4973536;28;20224;-64
2021/04/02 21:58:41;;;;;;;64.60;23.97;;;;;;;10.96;100.00;95371.81;4972751;28;20223;-64
2021/04/02 22:01:08;;;;;;;56.63;21.70;;;;;;;11.00;100.00;95383.91;4973593;28;20199;-64
2021/04/02 22:03:36;;;;;;;43.60;16.83;;;;;;;11.08;100.00;95396.19;4973619;28;20201;-63
2021/04/02 22:06:03;;;;;;;18.67;12.53;;;;;;;11.01;100.00;95388.03;4973312;28;20207;-64
2021/04/02 22:08:31;;;;;;;16.60;11.93;;;;;;;10.98;100.00;95391.22;4973591;28;20642;-64
2021/04/02 22:10:58;;;;;;;25.63;15.43;;;;;;;10.95;100.00;95393.66;4973246;28;20239;-64
2021/04/02 22:13:25;;;;;;;22.47;14.40;;;;;;;10.81;100.00;95391.13;4973196;28;20691;-63
2021/04/02 22:15:52;;;;;;;25.67;16.03;;;;;;;10.92;100.00;95387.22;4973201;28;20690;-64
2021/04/02 22:18:19;;;;;;;29.00;18.30;;;;;;;10.93;100.00;95393.19;4973096;28;20693;-64
2021/04/02 22:20:46;;;;;;;28.47;17.67;;;;;;;10.92;100.00;95396.84;4972779;28;20227;-63
2021/04/02 22:23:16;;;;;;;26.73;17.23;;;;;;;10.95;100.00;95407.44;4972992;28;20301;-64
2021/04/02 22:25:46;;;;;;;24.03;16.33;;;;;;;10.96;100.00;95395.94;4973314;28;20250;-63
2021/04/02 22:28:14;;;;;;;33.07;20.10;;;;;;;11.00;100.00;95393.53;4973138;28;20753;-63
2021/04/02 22:30:44;;;;;;;29.50;17.40;;;;;;;11.01;100.00;95390.63;4972885;28;20199;-64
2021/04/02 22:33:11;;;;;;;22.83;14.77;;;;;;;11.01;100.00;95385.41;4972935;28;20204;-63
2021/04/02 22:35:38;;;;;;;29.50;19.10;;;;;;;11.05;100.00;95383.00;4972995;28;20738;-63
2021/04/02 22:38:06;;;;;;;67.90;33.47;;;;;;;11.04;100.00;95384.06;4972730;28;20203;-64
2021/04/02 22:40:37;;;;;;;34.27;22.10;;;;;;;11.02;100.00;95373.97;4972813;28;20196;-63
2021/04/02 22:43:04;;;;;;;45.20;32.80;;;;;;;10.99;100.00;95381.59;4972693;28;20228;-64
2021/04/02 22:45:31;;;;;;;37.83;24.23;;;;;;;10.93;100.00;95375.75;4972755;28;20208;-63
2021/04/02 22:47:58;;;;;;;33.50;21.93;;;;;;;10.92;100.00;95376.03;4972505;28;20227;-64
2021/04/02 22:50:26;;;;;;;39.37;27.07;;;;;;;10.78;100.00;95374.28;4972559;28;20192;-63
2021/04/02 22:52:54;;;;;;;44.17;25.27;;;;;;;10.83;100.00;95376.00;4972732;28;20192;-63
2021/04/02 22:55:23;;;;;;;41.00;25.93;;;;;;;10.91;100.00;95374.53;4972375;28;20238;-64
2021/04/02 22:57:52;;;;;;;31.23;20.27;;;;;;;10.90;100.00;95367.78;4972489;28;20200;-64
2021/04/02 23:00:23;;;;;;;36.07;25.17;;;;;;;10.75;100.00;95371.53;4972285;28;20583;-64
2021/04/02 23:02:50;;;;;;;28.93;19.73;;;;;;;10.80;100.00;95374.00;4972445;28;20324;-63
2021/04/02 23:05:20;;;;;;;25.37;17.10;;;;;;;10.70;100.00;95372.41;4971747;28;20204;-63
2021/04/02 23:07:47;;;;;;;32.53;20.97;;;;;;;10.72;100.00;95372.09;4972277;28;20199;-62
2021/04/02 23:10:16;;;;;;;26.00;17.60;;;;;;;10.76;100.00;95376.41;4972496;28;20208;-64
2021/04/02 23:12:43;;;;;;;34.07;21.87;;;;;;;10.70;100.00;95369.06;4972095;28;20573;-63
2021/04/02 23:15:12;;;;;;;26.93;17.40;;;;;;;10.76;100.00;95367.84;4972063;28;20192;-64
2021/04/02 23:17:41;;;;;;;29.40;19.60;;;;;;;10.62;100.00;95362.72;4972268;28;20200;-61
2021/04/02 23:20:10;;;;;;;25.60;17.67;;;;;;;10.56;100.00;95357.97;4972093;28;20229;-64
2021/04/02 23:22:37;;;;;;;34.07;22.80;;;;;;;10.62;100.00;95356.75;4971684;28;20274;-63
2021/04/02 23:25:05;;;;;;;37.77;23.97;;;;;;;10.72;100.00;95352.09;4972086;28;20203;-63
2021/04/02 23:27:32;;;;;;;27.17;19.43;;;;;;;10.45;100.00;95346.25;4972095;28;20691;-64
2021/04/02 23:32:41;;;;;;;27.37;20.47;;;;;;;10.38;100.00;95340.69;4971847;28;20571;-64
2021/04/02 23:35:10;;;;;;;30.13;21.80;;;;;;;10.21;100.00;95341.34;4972285;28;20568;-64
2021/04/02 23:37:38;;;;;;;31.73;21.17;;;;;;;10.24;100.00;95335.56;4971977;28;20192;-63
2021/04/02 23:40:07;;;;;;;31.40;22.07;;;;;;;10.36;100.00;95335.81;4972272;28;20577;-63
2021/04/02 23:42:34;;;;;;;39.40;26.03;;;;;;;10.46;100.00;95337.41;4971804;28;20263;-63
2021/04/02 23:45:01;;;;;;;33.93;23.17;;;;;;;10.40;100.00;95333.38;4972022;28;20192;-64
2021/04/02 23:47:29;;;;;;;32.73;22.80;;;;;;;10.45;100.00;95326.25;4971898;28;20223;-63